sensor_id;sensor_type;location;lat;lon;timestamp;P1;durP1;ratioP1;P2;durP2;ratioP2
3487;SDS011;38546;48.170;11.724;2023-11-18T00:00:04;17.03;;;9.60;;
3487;SDS011;38546;48.170;11.724;2023-11-18T00:03:02;14.37;;;9.57;;
3487;SDS011;38546;48.170;11.724;2023-11-18T00:05:51;13.93;;;10.07;;
3487;SDS011;38546;48.170;11.724;2023-11-18T00:08:41;16.40;;;9.63;;
3487;SDS011;38546;48.170;11.724;2023-11-18T00:11:31;18.63;;;10.23;;
3487;SDS011;38546;48.170;11.724;2023-11-18T00:14:20;14.57;;;8.93;;
3487;SDS011;38546;48.170;11.724;2023-11-18T00:17:10;18.17;;;11.23;;
3487;SDS011;38546;48.170;11.724;2023-11-18T00:20:01;15.70;;;9.33;;
3487;SDS011;38546;48.170;11.724;2023-11-18T00:22:52;15.40;;;10.00;;
3487;SDS011;38546;48.170;11.724;2023-11-18T00:25:41;16.27;;;9.80;;
3487;SDS011;38546;48.170;11.724;2023-11-18T00:28:30;13.87;;;8.93;;
3487;SDS011;38546;48.170;11.724;2023-11-18T00:31:19;15.23;;;9.77;;
3487;SDS011;38546;48.170;11.724;2023-11-18T00:34:09;17.33;;;9.37;;
3487;SDS011;38546;48.170;11.724;2023-11-18T00:36:59;15.00;;;9.60;;
3487;SDS011;38546;48.170;11.724;2023-11-18T00:39:49;16.50;;;9.80;;
3487;SDS011;38546;48.170;11.724;2023-11-18T00:42:38;16.73;;;9.33;;
3487;SDS011;38546;48.170;11.724;2023-11-18T00:45:27;13.37;;;9.20;;
3487;SDS011;38546;48.170;11.724;2023-11-18T00:48:17;16.70;;;10.27;;
3487;SDS011;38546;48.170;11.724;2023-11-18T00:51:06;14.43;;;9.77;;
3487;SDS011;38546;48.170;11.724;2023-11-18T00:53:56;13.60;;;9.30;;
3487;SDS011;38546;48.170;11.724;2023-11-18T00:56:46;17.30;;;9.90;;
3487;SDS011;38546;48.170;11.724;2023-11-18T00:59:35;16.50;;;9.70;;
3487;SDS011;38546;48.170;11.724;2023-11-18T01:02:24;14.47;;;9.10;;
3487;SDS011;38546;48.170;11.724;2023-11-18T01:05:13;12.80;;;9.23;;
3487;SDS011;38546;48.170;11.724;2023-11-18T01:08:03;14.23;;;8.93;;
3487;SDS011;38546;48.170;11.724;2023-11-18T01:10:53;12.93;;;8.70;;
3487;SDS011;38546;48.170;11.724;2023-11-18T01:13:43;12.20;;;8.13;;
3487;SDS011;38546;48.170;11.724;2023-11-18T01:16:32;10.70;;;7.17;;
3487;SDS011;38546;48.170;11.724;2023-11-18T01:19:21;9.90;;;7.07;;
3487;SDS011;38546;48.170;11.724;2023-11-18T01:22:12;9.37;;;7.23;;
3487;SDS011;38546;48.170;11.724;2023-11-18T01:25:01;8.10;;;6.53;;
3487;SDS011;38546;48.170;11.724;2023-11-18T01:27:51;7.20;;;5.63;;
3487;SDS011;38546;48.170;11.724;2023-11-18T01:30:40;8.63;;;6.70;;
3487;SDS011;38546;48.170;11.724;2023-11-18T01:33:33;6.00;;;4.80;;
3487;SDS011;38546;48.170;11.724;2023-11-18T01:36:26;8.07;;;6.07;;
3487;SDS011;38546;48.170;11.724;2023-11-18T01:39:16;8.27;;;5.60;;
3487;SDS011;38546;48.170;11.724;2023-11-18T01:42:06;9.67;;;6.10;;
3487;SDS011;38546;48.170;11.724;2023-11-18T01:44:56;7.70;;;5.77;;
3487;SDS011;38546;48.170;11.724;2023-11-18T01:47:45;7.17;;;5.47;;
3487;SDS011;38546;48.170;11.724;2023-11-18T01:50:37;5.87;;;4.80;;
3487;SDS011;38546;48.170;11.724;2023-11-18T01:53:28;6.77;;;5.20;;
3487;SDS011;38546;48.170;11.724;2023-11-18T01:56:18;5.17;;;4.67;;
3487;SDS011;38546;48.170;11.724;2023-11-18T01:59:09;6.53;;;5.40;;
3487;SDS011;38546;48.170;11.724;2023-11-18T02:02:05;7.10;;;6.00;;
3487;SDS011;38546;48.170;11.724;2023-11-18T02:04:54;6.33;;;5.03;;
3487;SDS011;38546;48.170;11.724;2023-11-18T02:07:44;6.37;;;4.97;;
3487;SDS011;38546;48.170;11.724;2023-11-18T02:10:35;7.30;;;5.33;;
3487;SDS011;38546;48.170;11.724;2023-11-18T02:14:04;5.33;;;4.80;;
3487;SDS011;38546;48.170;11.724;2023-11-18T02:16:53;6.63;;;5.50;;
3487;SDS011;38546;48.170;11.724;2023-11-18T02:19:48;6.00;;;5.23;;
3487;SDS011;38546;48.170;11.724;2023-11-18T02:22:42;5.53;;;5.03;;
3487;SDS011;38546;48.170;11.724;2023-11-18T02:25:33;6.07;;;5.20;;
3487;SDS011;38546;48.170;11.724;2023-11-18T02:28:23;6.13;;;5.20;;
3487;SDS011;38546;48.170;11.724;2023-11-18T02:31:14;8.23;;;4.90;;
3487;SDS011;38546;48.170;11.724;2023-11-18T02:34:12;7.67;;;5.27;;
3487;SDS011;38546;48.170;11.724;2023-11-18T02:37:05;7.57;;;5.13;;
3487;SDS011;38546;48.170;11.724;2023-11-18T02:39:57;6.40;;;5.03;;
3487;SDS011;38546;48.170;11.724;2023-11-18T02:42:57;7.13;;;5.47;;
3487;SDS011;38546;48.170;11.724;2023-11-18T02:45:49;7.37;;;5.17;;
3487;SDS011;38546;48.170;11.724;2023-11-18T02:48:40;6.13;;;5.50;;
3487;SDS011;38546;48.170;11.724;2023-11-18T02:51:32;6.30;;;4.83;;
3487;SDS011;38546;48.170;11.724;2023-11-18T02:54:28;6.27;;;4.70;;
3487;SDS011;38546;48.170;11.724;2023-11-18T02:57:17;5.10;;;4.40;;
3487;SDS011;38546;48.170;11.724;2023-11-18T03:00:06;5.83;;;4.87;;
3487;SDS011;38546;48.170;11.724;2023-11-18T03:03:00;8.73;;;6.00;;
3487;SDS011;38546;48.170;11.724;2023-11-18T03:05:51;6.87;;;5.10;;
3487;SDS011;38546;48.170;11.724;2023-11-18T03:08:40;6.30;;;5.20;;
3487;SDS011;38546;48.170;11.724;2023-11-18T03:11:30;6.63;;;5.07;;
3487;SDS011;38546;48.170;11.724;2023-11-18T03:14:19;5.77;;;5.07;;
3487;SDS011;38546;48.170;11.724;2023-11-18T03:17:09;5.67;;;4.60;;
3487;SDS011;38546;48.170;11.724;2023-11-18T03:19:58;4.50;;;3.93;;
3487;SDS011;38546;48.170;11.724;2023-11-18T03:22:49;7.10;;;5.60;;
3487;SDS011;38546;48.170;11.724;2023-11-18T03:25:39;7.07;;;5.60;;
3487;SDS011;38546;48.170;11.724;2023-11-18T03:28:28;7.83;;;5.20;;
3487;SDS011;38546;48.170;11.724;2023-11-18T03:31:17;6.73;;;5.40;;
3487;SDS011;38546;48.170;11.724;2023-11-18T03:34:08;7.80;;;5.10;;
3487;SDS011;38546;48.170;11.724;2023-11-18T03:36:57;6.27;;;4.90;;
3487;SDS011;38546;48.170;11.724;2023-11-18T03:39:46;7.83;;;5.00;;
3487;SDS011;38546;48.170;11.724;2023-11-18T03:42:35;5.27;;;4.77;;
3487;SDS011;38546;48.170;11.724;2023-11-18T03:45:25;7.70;;;5.83;;
3487;SDS011;38546;48.170;11.724;2023-11-18T03:48:15;6.50;;;4.70;;
3487;SDS011;38546;48.170;11.724;2023-11-18T03:51:04;5.90;;;5.30;;
3487;SDS011;38546;48.170;11.724;2023-11-18T03:53:53;7.00;;;5.83;;
3487;SDS011;38546;48.170;11.724;2023-11-18T03:56:43;9.63;;;6.07;;
3487;SDS011;38546;48.170;11.724;2023-11-18T03:59:32;7.07;;;5.67;;
3487;SDS011;38546;48.170;11.724;2023-11-18T04:02:21;7.17;;;4.90;;
3487;SDS011;38546;48.170;11.724;2023-11-18T04:05:10;5.77;;;5.17;;
3487;SDS011;38546;48.170;11.724;2023-11-18T04:08:01;8.17;;;5.00;;
3487;SDS011;38546;48.170;11.724;2023-11-18T04:10:50;6.50;;;5.30;;
3487;SDS011;38546;48.170;11.724;2023-11-18T04:13:39;8.63;;;5.50;;
3487;SDS011;38546;48.170;11.724;2023-11-18T04:16:32;5.80;;;5.23;;
3487;SDS011;38546;48.170;11.724;2023-11-18T04:19:23;6.83;;;5.20;;
3487;SDS011;38546;48.170;11.724;2023-11-18T04:22:13;5.13;;;4.63;;
3487;SDS011;38546;48.170;11.724;2023-11-18T04:25:02;6.73;;;5.60;;
3487;SDS011;38546;48.170;11.724;2023-11-18T04:27:55;7.67;;;5.93;;
3487;SDS011;38546;48.170;11.724;2023-11-18T04:30:44;9.30;;;6.77;;
3487;SDS011;38546;48.170;11.724;2023-11-18T04:33:33;8.80;;;5.50;;
3487;SDS011;38546;48.170;11.724;2023-11-18T04:36:22;11.47;;;6.83;;
3487;SDS011;38546;48.170;11.724;2023-11-18T04:39:11;8.37;;;6.17;;
3487;SDS011;38546;48.170;11.724;2023-11-18T04:42:01;8.80;;;6.37;;
3487;SDS011;38546;48.170;11.724;2023-11-18T04:44:51;7.67;;;6.20;;
3487;SDS011;38546;48.170;11.724;2023-11-18T04:47:40;8.67;;;6.83;;
3487;SDS011;38546;48.170;11.724;2023-11-18T04:50:31;9.57;;;6.47;;
3487;SDS011;38546;48.170;11.724;2023-11-18T04:53:21;7.50;;;5.80;;
3487;SDS011;38546;48.170;11.724;2023-11-18T04:56:10;8.27;;;6.67;;
3487;SDS011;38546;48.170;11.724;2023-11-18T04:59:00;9.63;;;6.97;;
3487;SDS011;38546;48.170;11.724;2023-11-18T05:01:51;9.60;;;6.87;;
3487;SDS011;38546;48.170;11.724;2023-11-18T05:04:41;12.30;;;6.93;;
3487;SDS011;38546;48.170;11.724;2023-11-18T05:07:31;7.80;;;6.30;;
3487;SDS011;38546;48.170;11.724;2023-11-18T05:10:22;11.33;;;6.67;;
3487;SDS011;38546;48.170;11.724;2023-11-18T05:13:11;7.47;;;6.23;;
3487;SDS011;38546;48.170;11.724;2023-11-18T05:16:04;7.63;;;5.83;;
3487;SDS011;38546;48.170;11.724;2023-11-18T05:18:55;9.80;;;7.00;;
3487;SDS011;38546;48.170;11.724;2023-11-18T05:21:44;10.43;;;6.70;;
3487;SDS011;38546;48.170;11.724;2023-11-18T05:24:38;9.47;;;7.00;;
3487;SDS011;38546;48.170;11.724;2023-11-18T05:27:27;8.03;;;5.30;;
3487;SDS011;38546;48.170;11.724;2023-11-18T05:30:16;11.70;;;6.10;;
3487;SDS011;38546;48.170;11.724;2023-11-18T05:33:06;9.43;;;6.00;;
3487;SDS011;38546;48.170;11.724;2023-11-18T05:35:56;8.60;;;6.20;;
3487;SDS011;38546;48.170;11.724;2023-11-18T05:38:45;10.30;;;6.80;;
3487;SDS011;38546;48.170;11.724;2023-11-18T05:41:36;7.33;;;5.90;;
3487;SDS011;38546;48.170;11.724;2023-11-18T05:44:27;9.40;;;6.70;;
3487;SDS011;38546;48.170;11.724;2023-11-18T05:47:19;10.27;;;6.40;;
3487;SDS011;38546;48.170;11.724;2023-11-18T05:50:08;11.40;;;5.60;;
3487;SDS011;38546;48.170;11.724;2023-11-18T05:52:58;10.30;;;6.90;;
3487;SDS011;38546;48.170;11.724;2023-11-18T05:55:47;8.73;;;6.70;;
3487;SDS011;38546;48.170;11.724;2023-11-18T05:58:36;8.57;;;6.23;;
3487;SDS011;38546;48.170;11.724;2023-11-18T06:01:27;10.53;;;6.97;;
3487;SDS011;38546;48.170;11.724;2023-11-18T06:04:16;8.43;;;6.50;;
3487;SDS011;38546;48.170;11.724;2023-11-18T06:07:05;11.10;;;6.60;;
3487;SDS011;38546;48.170;11.724;2023-11-18T06:09:54;9.23;;;6.00;;
3487;SDS011;38546;48.170;11.724;2023-11-18T06:12:46;9.00;;;6.70;;
3487;SDS011;38546;48.170;11.724;2023-11-18T06:15:36;9.00;;;6.37;;
3487;SDS011;38546;48.170;11.724;2023-11-18T06:18:26;13.50;;;6.63;;
3487;SDS011;38546;48.170;11.724;2023-11-18T06:21:17;8.43;;;6.13;;
3487;SDS011;38546;48.170;11.724;2023-11-18T06:24:08;8.80;;;6.43;;
3487;SDS011;38546;48.170;11.724;2023-11-18T06:27:00;10.17;;;7.30;;
3487;SDS011;38546;48.170;11.724;2023-11-18T06:29:49;9.67;;;6.70;;
3487;SDS011;38546;48.170;11.724;2023-11-18T06:32:38;11.60;;;6.40;;
3487;SDS011;38546;48.170;11.724;2023-11-18T06:35:27;9.43;;;7.07;;
3487;SDS011;38546;48.170;11.724;2023-11-18T06:38:16;9.13;;;6.27;;
3487;SDS011;38546;48.170;11.724;2023-11-18T06:41:07;9.20;;;6.50;;
3487;SDS011;38546;48.170;11.724;2023-11-18T06:44:00;13.63;;;6.67;;
3487;SDS011;38546;48.170;11.724;2023-11-18T06:46:57;8.50;;;6.03;;
3487;SDS011;38546;48.170;11.724;2023-11-18T06:49:46;10.10;;;7.17;;
3487;SDS011;38546;48.170;11.724;2023-11-18T06:52:39;8.53;;;6.00;;
3487;SDS011;38546;48.170;11.724;2023-11-18T06:55:29;11.43;;;6.90;;
3487;SDS011;38546;48.170;11.724;2023-11-18T06:58:18;12.17;;;7.60;;
3487;SDS011;38546;48.170;11.724;2023-11-18T07:01:08;9.53;;;6.50;;
3487;SDS011;38546;48.170;11.724;2023-11-18T07:03:58;10.07;;;6.53;;
3487;SDS011;38546;48.170;11.724;2023-11-18T07:06:47;10.60;;;6.70;;
3487;SDS011;38546;48.170;11.724;2023-11-18T07:09:38;10.87;;;7.07;;
3487;SDS011;38546;48.170;11.724;2023-11-18T07:12:27;12.90;;;7.13;;
3487;SDS011;38546;48.170;11.724;2023-11-18T07:15:17;9.17;;;5.80;;
3487;SDS011;38546;48.170;11.724;2023-11-18T07:18:06;9.43;;;5.37;;
3487;SDS011;38546;48.170;11.724;2023-11-18T07:21:00;10.30;;;6.97;;
3487;SDS011;38546;48.170;11.724;2023-11-18T07:23:53;9.70;;;6.20;;
3487;SDS011;38546;48.170;11.724;2023-11-18T07:26:41;9.40;;;5.53;;
3487;SDS011;38546;48.170;11.724;2023-11-18T07:29:32;8.40;;;6.03;;
3487;SDS011;38546;48.170;11.724;2023-11-18T07:32:21;13.30;;;5.90;;
3487;SDS011;38546;48.170;11.724;2023-11-18T07:35:10;8.67;;;6.00;;
3487;SDS011;38546;48.170;11.724;2023-11-18T07:37:59;8.17;;;5.43;;
3487;SDS011;38546;48.170;11.724;2023-11-18T07:40:49;10.13;;;6.93;;
3487;SDS011;38546;48.170;11.724;2023-11-18T07:43:41;10.63;;;6.57;;
3487;SDS011;38546;48.170;11.724;2023-11-18T07:46:32;9.07;;;5.50;;
3487;SDS011;38546;48.170;11.724;2023-11-18T07:49:21;7.00;;;5.27;;
3487;SDS011;38546;48.170;11.724;2023-11-18T07:52:14;8.23;;;5.37;;
3487;SDS011;38546;48.170;11.724;2023-11-18T07:55:03;8.73;;;6.10;;
3487;SDS011;38546;48.170;11.724;2023-11-18T07:57:54;6.80;;;4.80;;
3487;SDS011;38546;48.170;11.724;2023-11-18T08:00:43;8.70;;;5.60;;
3487;SDS011;38546;48.170;11.724;2023-11-18T08:03:36;9.13;;;5.27;;
3487;SDS011;38546;48.170;11.724;2023-11-18T08:06:27;7.90;;;5.20;;
3487;SDS011;38546;48.170;11.724;2023-11-18T08:09:17;10.73;;;5.60;;
3487;SDS011;38546;48.170;11.724;2023-11-18T08:12:12;6.93;;;5.97;;
3487;SDS011;38546;48.170;11.724;2023-11-18T08:15:01;6.60;;;5.07;;
3487;SDS011;38546;48.170;11.724;2023-11-18T08:17:51;4.30;;;3.90;;
3487;SDS011;38546;48.170;11.724;2023-11-18T08:20:42;7.80;;;5.50;;
3487;SDS011;38546;48.170;11.724;2023-11-18T08:23:32;5.30;;;4.80;;
3487;SDS011;38546;48.170;11.724;2023-11-18T08:26:21;6.13;;;5.10;;
3487;SDS011;38546;48.170;11.724;2023-11-18T08:29:11;7.20;;;5.00;;
3487;SDS011;38546;48.170;11.724;2023-11-18T08:32:01;4.70;;;4.30;;
3487;SDS011;38546;48.170;11.724;2023-11-18T08:34:51;7.73;;;4.63;;
3487;SDS011;38546;48.170;11.724;2023-11-18T08:37:40;7.07;;;5.50;;
3487;SDS011;38546;48.170;11.724;2023-11-18T08:40:31;9.80;;;5.00;;
3487;SDS011;38546;48.170;11.724;2023-11-18T08:43:20;5.80;;;3.87;;
3487;SDS011;38546;48.170;11.724;2023-11-18T08:46:09;7.30;;;5.20;;
3487;SDS011;38546;48.170;11.724;2023-11-18T08:48:58;5.07;;;3.77;;
3487;SDS011;38546;48.170;11.724;2023-11-18T08:51:54;7.13;;;5.47;;
3487;SDS011;38546;48.170;11.724;2023-11-18T08:54:47;4.40;;;4.00;;
3487;SDS011;38546;48.170;11.724;2023-11-18T08:57:54;5.87;;;4.30;;
3487;SDS011;38546;48.170;11.724;2023-11-18T09:00:47;4.33;;;3.93;;
3487;SDS011;38546;48.170;11.724;2023-11-18T09:03:53;9.77;;;4.53;;
3487;SDS011;38546;48.170;11.724;2023-11-18T09:06:43;5.60;;;4.97;;
3487;SDS011;38546;48.170;11.724;2023-11-18T09:09:34;3.87;;;3.57;;
3487;SDS011;38546;48.170;11.724;2023-11-18T09:12:23;5.70;;;4.53;;
3487;SDS011;38546;48.170;11.724;2023-11-18T09:15:13;7.73;;;4.37;;
3487;SDS011;38546;48.170;11.724;2023-11-18T09:18:10;5.60;;;4.20;;
3487;SDS011;38546;48.170;11.724;2023-11-18T09:21:00;4.83;;;4.13;;
3487;SDS011;38546;48.170;11.724;2023-11-18T09:23:52;5.47;;;4.47;;
3487;SDS011;38546;48.170;11.724;2023-11-18T09:26:41;5.07;;;4.10;;
3487;SDS011;38546;48.170;11.724;2023-11-18T09:29:33;4.50;;;4.10;;
3487;SDS011;38546;48.170;11.724;2023-11-18T09:32:23;5.23;;;4.70;;
3487;SDS011;38546;48.170;11.724;2023-11-18T09:35:15;4.23;;;3.83;;
3487;SDS011;38546;48.170;11.724;2023-11-18T09:38:06;5.23;;;3.97;;
3487;SDS011;38546;48.170;11.724;2023-11-18T09:40:56;4.97;;;4.17;;
3487;SDS011;38546;48.170;11.724;2023-11-18T09:43:51;4.60;;;4.20;;
3487;SDS011;38546;48.170;11.724;2023-11-18T09:46:41;5.57;;;4.30;;
3487;SDS011;38546;48.170;11.724;2023-11-18T09:49:44;4.93;;;4.30;;
3487;SDS011;38546;48.170;11.724;2023-11-18T09:52:39;4.53;;;4.13;;
3487;SDS011;38546;48.170;11.724;2023-11-18T09:55:45;6.53;;;4.17;;
3487;SDS011;38546;48.170;11.724;2023-11-18T09:59:07;4.87;;;4.17;;
3487;SDS011;38546;48.170;11.724;2023-11-18T10:02:04;5.20;;;4.10;;
3487;SDS011;38546;48.170;11.724;2023-11-18T10:04:59;5.30;;;4.47;;
3487;SDS011;38546;48.170;11.724;2023-11-18T10:07:50;6.60;;;4.57;;
3487;SDS011;38546;48.170;11.724;2023-11-18T10:10:40;5.10;;;3.80;;
3487;SDS011;38546;48.170;11.724;2023-11-18T10:13:34;3.40;;;3.10;;
3487;SDS011;38546;48.170;11.724;2023-11-18T10:16:29;4.20;;;3.80;;
3487;SDS011;38546;48.170;11.724;2023-11-18T10:19:20;5.23;;;3.73;;
3487;SDS011;38546;48.170;11.724;2023-11-18T10:22:19;4.50;;;3.77;;
3487;SDS011;38546;48.170;11.724;2023-11-18T10:25:12;4.90;;;4.40;;
3487;SDS011;38546;48.170;11.724;2023-11-18T10:28:30;3.40;;;2.90;;
3487;SDS011;38546;48.170;11.724;2023-11-18T10:31:21;4.43;;;4.13;;
3487;SDS011;38546;48.170;11.724;2023-11-18T10:34:13;4.13;;;3.83;;
3487;SDS011;38546;48.170;11.724;2023-11-18T10:37:06;5.40;;;4.17;;
3487;SDS011;38546;48.170;11.724;2023-11-18T10:39:55;3.73;;;3.50;;
3487;SDS011;38546;48.170;11.724;2023-11-18T10:42:46;4.13;;;3.10;;
3487;SDS011;38546;48.170;11.724;2023-11-18T10:45:37;3.20;;;2.70;;
3487;SDS011;38546;48.170;11.724;2023-11-18T10:48:30;2.80;;;2.60;;
3487;SDS011;38546;48.170;11.724;2023-11-18T10:51:20;3.30;;;3.00;;
3487;SDS011;38546;48.170;11.724;2023-11-18T10:54:15;3.40;;;3.20;;
3487;SDS011;38546;48.170;11.724;2023-11-18T10:57:06;2.47;;;2.37;;
3487;SDS011;38546;48.170;11.724;2023-11-18T10:59:58;2.83;;;2.70;;
3487;SDS011;38546;48.170;11.724;2023-11-18T11:02:49;2.37;;;2.23;;
3487;SDS011;38546;48.170;11.724;2023-11-18T11:05:47;6.60;;;2.10;;
3487;SDS011;38546;48.170;11.724;2023-11-18T11:08:38;4.53;;;2.50;;
3487;SDS011;38546;48.170;11.724;2023-11-18T11:11:29;2.43;;;2.23;;
3487;SDS011;38546;48.170;11.724;2023-11-18T11:14:32;2.27;;;2.00;;
3487;SDS011;38546;48.170;11.724;2023-11-18T11:17:29;1.80;;;1.70;;
3487;SDS011;38546;48.170;11.724;2023-11-18T11:20:23;2.27;;;2.17;;
3487;SDS011;38546;48.170;11.724;2023-11-18T11:23:21;3.73;;;2.60;;
3487;SDS011;38546;48.170;11.724;2023-11-18T11:30:24;4.30;;;2.10;;
3487;SDS011;38546;48.170;11.724;2023-11-18T11:33:32;2.40;;;2.30;;
3487;SDS011;38546;48.170;11.724;2023-11-18T11:36:37;1.40;;;1.40;;
3487;SDS011;38546;48.170;11.724;2023-11-18T11:39:35;2.73;;;1.50;;
3487;SDS011;38546;48.170;11.724;2023-11-18T11:42:26;2.23;;;2.03;;
3487;SDS011;38546;48.170;11.724;2023-11-18T11:45:16;1.70;;;1.60;;
3487;SDS011;38546;48.170;11.724;2023-11-18T11:48:10;2.00;;;1.80;;
3487;SDS011;38546;48.170;11.724;2023-11-18T11:51:14;2.13;;;1.93;;
3487;SDS011;38546;48.170;11.724;2023-11-18T11:54:20;4.63;;;1.70;;
3487;SDS011;38546;48.170;11.724;2023-11-18T11:57:13;1.90;;;1.80;;
3487;SDS011;38546;48.170;11.724;2023-11-18T12:00:03;1.50;;;1.50;;
3487;SDS011;38546;48.170;11.724;2023-11-18T12:03:03;1.43;;;1.33;;
3487;SDS011;38546;48.170;11.724;2023-11-18T12:06:01;1.60;;;1.37;;
3487;SDS011;38546;48.170;11.724;2023-11-18T12:08:56;2.80;;;1.90;;
3487;SDS011;38546;48.170;11.724;2023-11-18T12:11:46;1.50;;;1.40;;
3487;SDS011;38546;48.170;11.724;2023-11-18T12:14:49;2.80;;;1.63;;
3487;SDS011;38546;48.170;11.724;2023-11-18T12:23:02;1.90;;;1.40;;
3487;SDS011;38546;48.170;11.724;2023-11-18T12:26:37;1.90;;;1.80;;
3487;SDS011;38546;48.170;11.724;2023-11-18T12:29:32;1.90;;;1.80;;
3487;SDS011;38546;48.170;11.724;2023-11-18T12:42:58;1.60;;;1.53;;
3487;SDS011;38546;48.170;11.724;2023-11-18T12:50:10;4.23;;;1.37;;
3487;SDS011;38546;48.170;11.724;2023-11-18T12:53:13;1.80;;;1.70;;
3487;SDS011;38546;48.170;11.724;2023-11-18T12:56:03;1.80;;;1.70;;
3487;SDS011;38546;48.170;11.724;2023-11-18T12:58:54;1.43;;;1.43;;
3487;SDS011;38546;48.170;11.724;2023-11-18T13:01:44;1.50;;;1.33;;
3487;SDS011;38546;48.170;11.724;2023-11-18T13:04:41;1.77;;;1.77;;
3487;SDS011;38546;48.170;11.724;2023-11-18T13:07:31;1.80;;;1.70;;
3487;SDS011;38546;48.170;11.724;2023-11-18T13:10:21;1.70;;;1.60;;
3487;SDS011;38546;48.170;11.724;2023-11-18T13:13:11;2.00;;;1.57;;
3487;SDS011;38546;48.170;11.724;2023-11-18T13:16:02;1.70;;;1.60;;
3487;SDS011;38546;48.170;11.724;2023-11-18T13:18:53;1.57;;;1.23;;
3487;SDS011;38546;48.170;11.724;2023-11-18T13:21:44;1.67;;;1.57;;
3487;SDS011;38546;48.170;11.724;2023-11-18T13:24:37;2.40;;;2.13;;
3487;SDS011;38546;48.170;11.724;2023-11-18T13:27:34;2.50;;;2.10;;
3487;SDS011;38546;48.170;11.724;2023-11-18T13:30:24;2.80;;;1.87;;
3487;SDS011;38546;48.170;11.724;2023-11-18T13:33:13;1.77;;;1.67;;
3487;SDS011;38546;48.170;11.724;2023-11-18T13:36:03;2.10;;;1.90;;
3487;SDS011;38546;48.170;11.724;2023-11-18T13:38:53;1.60;;;1.60;;
3487;SDS011;38546;48.170;11.724;2023-11-18T13:41:43;1.77;;;1.67;;
3487;SDS011;38546;48.170;11.724;2023-11-18T13:44:36;1.93;;;1.83;;
3487;SDS011;38546;48.170;11.724;2023-11-18T13:47:31;1.90;;;1.80;;
3487;SDS011;38546;48.170;11.724;2023-11-18T13:50:20;2.37;;;2.17;;
3487;SDS011;38546;48.170;11.724;2023-11-18T13:53:10;2.40;;;2.20;;
3487;SDS011;38546;48.170;11.724;2023-11-18T13:55:59;2.47;;;2.27;;
3487;SDS011;38546;48.170;11.724;2023-11-18T13:58:49;2.13;;;1.90;;
3487;SDS011;38546;48.170;11.724;2023-11-18T14:01:38;2.63;;;1.87;;
3487;SDS011;38546;48.170;11.724;2023-11-18T14:04:28;2.90;;;2.37;;
3487;SDS011;38546;48.170;11.724;2023-11-18T14:07:17;4.00;;;2.60;;
3487;SDS011;38546;48.170;11.724;2023-11-18T14:10:07;5.73;;;2.83;;
3487;SDS011;38546;48.170;11.724;2023-11-18T14:13:02;2.57;;;2.37;;
3487;SDS011;38546;48.170;11.724;2023-11-18T14:15:58;2.60;;;2.43;;
3487;SDS011;38546;48.170;11.724;2023-11-18T14:18:48;4.67;;;2.80;;
3487;SDS011;38546;48.170;11.724;2023-11-18T14:21:38;2.37;;;2.27;;
3487;SDS011;38546;48.170;11.724;2023-11-18T14:24:29;3.17;;;2.87;;
3487;SDS011;38546;48.170;11.724;2023-11-18T14:27:20;2.57;;;2.37;;
3487;SDS011;38546;48.170;11.724;2023-11-18T14:30:10;2.47;;;2.30;;
3487;SDS011;38546;48.170;11.724;2023-11-18T14:33:01;6.37;;;2.73;;
3487;SDS011;38546;48.170;11.724;2023-11-18T14:35:50;2.33;;;2.23;;
3487;SDS011;38546;48.170;11.724;2023-11-18T14:38:40;2.37;;;2.20;;
3487;SDS011;38546;48.170;11.724;2023-11-18T14:41:30;1.60;;;1.50;;
3487;SDS011;38546;48.170;11.724;2023-11-18T14:44:19;1.57;;;1.47;;
3487;SDS011;38546;48.170;11.724;2023-11-18T14:47:09;3.60;;;1.93;;
3487;SDS011;38546;48.170;11.724;2023-11-18T14:49:59;2.73;;;2.33;;
3487;SDS011;38546;48.170;11.724;2023-11-18T14:52:49;2.40;;;2.20;;
3487;SDS011;38546;48.170;11.724;2023-11-18T14:55:49;2.20;;;2.10;;
3487;SDS011;38546;48.170;11.724;2023-11-18T14:58:39;1.80;;;1.70;;
3487;SDS011;38546;48.170;11.724;2023-11-18T15:01:29;1.70;;;1.60;;
3487;SDS011;38546;48.170;11.724;2023-11-18T15:04:18;1.40;;;1.40;;
3487;SDS011;38546;48.170;11.724;2023-11-18T15:07:07;2.20;;;2.00;;
3487;SDS011;38546;48.170;11.724;2023-11-18T15:09:56;2.30;;;2.20;;
3487;SDS011;38546;48.170;11.724;2023-11-18T15:12:47;2.50;;;2.10;;
3487;SDS011;38546;48.170;11.724;2023-11-18T15:15:41;1.80;;;1.70;;
3487;SDS011;38546;48.170;11.724;2023-11-18T15:18:31;8.33;;;2.33;;
3487;SDS011;38546;48.170;11.724;2023-11-18T15:21:20;1.70;;;1.60;;
3487;SDS011;38546;48.170;11.724;2023-11-18T15:24:09;2.30;;;2.20;;
3487;SDS011;38546;48.170;11.724;2023-11-18T15:26:58;1.80;;;1.70;;
3487;SDS011;38546;48.170;11.724;2023-11-18T15:29:49;1.90;;;1.80;;
3487;SDS011;38546;48.170;11.724;2023-11-18T15:32:39;2.30;;;2.10;;
3487;SDS011;38546;48.170;11.724;2023-11-18T15:35:29;2.73;;;2.30;;
3487;SDS011;38546;48.170;11.724;2023-11-18T15:38:19;2.20;;;2.10;;
3487;SDS011;38546;48.170;11.724;2023-11-18T15:41:08;2.37;;;2.27;;
3487;SDS011;38546;48.170;11.724;2023-11-18T15:43:59;3.60;;;2.50;;
3487;SDS011;38546;48.170;11.724;2023-11-18T15:46:49;2.70;;;2.50;;
3487;SDS011;38546;48.170;11.724;2023-11-18T15:49:38;3.20;;;2.60;;
3487;SDS011;38546;48.170;11.724;2023-11-18T15:52:27;5.50;;;3.40;;
3487;SDS011;38546;48.170;11.724;2023-11-18T15:55:17;3.73;;;3.00;;
3487;SDS011;38546;48.170;11.724;2023-11-18T15:58:06;3.83;;;3.07;;
3487;SDS011;38546;48.170;11.724;2023-11-18T16:00:58;5.87;;;4.40;;
3487;SDS011;38546;48.170;11.724;2023-11-18T16:03:47;7.63;;;4.70;;
3487;SDS011;38546;48.170;11.724;2023-11-18T16:06:38;4.90;;;3.67;;
3487;SDS011;38546;48.170;11.724;2023-11-18T16:09:28;4.93;;;3.70;;
3487;SDS011;38546;48.170;11.724;2023-11-18T16:12:17;3.07;;;2.87;;
3487;SDS011;38546;48.170;11.724;2023-11-18T16:15:06;3.33;;;2.97;;
3487;SDS011;38546;48.170;11.724;2023-11-18T16:17:56;3.83;;;3.07;;
3487;SDS011;38546;48.170;11.724;2023-11-18T16:20:47;4.93;;;4.53;;
3487;SDS011;38546;48.170;11.724;2023-11-18T16:23:36;5.40;;;4.90;;
3487;SDS011;38546;48.170;11.724;2023-11-18T16:26:26;4.87;;;4.50;;
3487;SDS011;38546;48.170;11.724;2023-11-18T16:29:16;4.33;;;4.03;;
3487;SDS011;38546;48.170;11.724;2023-11-18T16:32:06;4.03;;;3.73;;
3487;SDS011;38546;48.170;11.724;2023-11-18T16:34:57;4.30;;;3.50;;
3487;SDS011;38546;48.170;11.724;2023-11-18T16:37:46;3.90;;;3.50;;
3487;SDS011;38546;48.170;11.724;2023-11-18T16:40:36;5.07;;;3.47;;
3487;SDS011;38546;48.170;11.724;2023-11-18T16:43:25;3.53;;;3.20;;
3487;SDS011;38546;48.170;11.724;2023-11-18T16:46:14;3.00;;;2.80;;
3487;SDS011;38546;48.170;11.724;2023-11-18T16:49:03;2.80;;;2.63;;
3487;SDS011;38546;48.170;11.724;2023-11-18T16:51:52;4.10;;;2.90;;
3487;SDS011;38546;48.170;11.724;2023-11-18T16:54:43;2.50;;;2.40;;
3487;SDS011;38546;48.170;11.724;2023-11-18T16:57:32;3.63;;;3.33;;
3487;SDS011;38546;48.170;11.724;2023-11-18T17:00:23;17.10;;;9.70;;
3487;SDS011;38546;48.170;11.724;2023-11-18T17:03:12;20.47;;;12.23;;
3487;SDS011;38546;48.170;11.724;2023-11-18T17:06:02;11.63;;;8.93;;
3487;SDS011;38546;48.170;11.724;2023-11-18T17:08:52;7.27;;;5.40;;
3487;SDS011;38546;48.170;11.724;2023-11-18T17:11:41;5.23;;;4.73;;
3487;SDS011;38546;48.170;11.724;2023-11-18T17:14:31;5.77;;;4.60;;
3487;SDS011;38546;48.170;11.724;2023-11-18T17:17:21;4.87;;;4.47;;
3487;SDS011;38546;48.170;11.724;2023-11-18T17:20:10;6.33;;;4.17;;
3487;SDS011;38546;48.170;11.724;2023-11-18T17:23:01;5.23;;;4.73;;
3487;SDS011;38546;48.170;11.724;2023-11-18T17:25:51;6.57;;;4.83;;
3487;SDS011;38546;48.170;11.724;2023-11-18T17:28:41;7.03;;;5.27;;
3487;SDS011;38546;48.170;11.724;2023-11-18T17:31:30;6.63;;;5.87;;
3487;SDS011;38546;48.170;11.724;2023-11-18T17:34:19;5.60;;;5.10;;